Time;durP1;ratioP1;P1;durP2;ratioP2;P2;SDS_P1;SDS_P2;PMS_P1;PMS_P2;Temp;Humidity;BMP_temperature;BMP_pressure;BME280_temperature;BME280_humidity;BME280_pressure;Samples;Min_cycle;Max_cycle;Signal;HPM_P1;HPM_P2
2023/07/22 00:01:05;;;;;;;4.68;2.25;;;;;;;-145.41;100.00;58600.66;5012341;28;20053;-84
2023/07/22 00:03:30;;;;;;;4.40;2.40;;;;;;;-145.41;100.00;58600.66;4989712;28;20043;-84
2023/07/22 00:06:10;;;;;;;5.32;2.72;;;;;;;-145.41;100.00;58600.66;5010974;28;20037;-84
2023/07/22 00:08:37;;;;;;;5.50;2.70;;;;;;;-145.41;100.00;58600.66;5015286;28;20035;-84
2023/07/22 00:11:03;;;;;;;7.35;3.72;;;;;;;-145.41;100.00;58600.66;5005181;28;20038;-84
2023/07/22 00:13:28;;;;;;;5.18;3.17;;;;;;;-145.41;100.00;58600.66;5000397;28;20038;-83
2023/07/22 00:15:55;;;;;;;4.63;2.55;;;;;;;-145.41;100.00;58600.66;5002234;28;20037;-83
2023/07/22 00:18:20;;;;;;;5.75;3.10;;;;;;;-145.41;100.00;58600.66;5010105;28;20401;-83
2023/07/22 00:20:45;;;;;;;4.88;3.13;;;;;;;-145.41;100.00;58600.66;5004825;28;20073;-84
2023/07/22 00:23:11;;;;;;;7.70;2.90;;;;;;;-145.41;100.00;58600.66;5005544;28;20037;-83
2023/07/22 00:25:36;;;;;;;4.63;2.72;;;;;;;-145.41;100.00;58600.66;5005723;28;20049;-84
2023/07/22 00:28:03;;;;;;;6.07;2.80;;;;;;;-145.41;100.00;58600.66;5010883;28;20069;-84
2023/07/22 00:30:29;;;;;;;5.93;2.95;;;;;;;-145.41;100.00;58600.66;5009564;28;20065;-82
2023/07/22 00:32:55;;;;;;;5.07;2.55;;;;;;;-145.41;100.00;58600.66;5011351;28;20034;-83
2023/07/22 00:35:21;;;;;;;4.63;2.85;;;;;;;-145.41;100.00;58600.66;5007067;28;20022;-82
2023/07/22 00:37:46;;;;;;;4.47;3.00;;;;;;;-145.41;100.00;58600.66;5009095;28;20070;-82
2023/07/22 00:40:12;;;;;;;4.60;2.88;;;;;;;-145.41;100.00;58600.66;5003976;28;20064;-83
2023/07/22 00:42:38;;;;;;;4.88;2.50;;;;;;;-145.41;100.00;58600.66;5007400;28;20045;-84
2023/07/22 00:45:04;;;;;;;6.72;2.70;;;;;;;-145.41;100.00;58600.66;5009041;28;20042;-83
2023/07/22 00:47:29;;;;;;;5.25;2.55;;;;;;;-145.41;100.00;58600.66;5005500;28;20030;-83
2023/07/22 00:49:56;;;;;;;4.53;2.83;;;;;;;-145.41;100.00;58600.66;5004235;28;20036;-83
2023/07/22 00:52:21;;;;;;;5.00;2.63;;;;;;;-145.41;100.00;58600.66;5006540;28;20034;-83
2023/07/22 00:54:47;;;;;;;4.63;2.63;;;;;;;-145.41;100.00;58600.66;5003368;28;20522;-84
2023/07/22 00:57:12;;;;;;;5.20;2.90;;;;;;;-145.41;100.00;58600.66;5005504;28;20030;-84
2023/07/22 00:59:39;;;;;;;5.15;2.97;;;;;;;-145.41;100.00;58600.66;5009779;28;20045;-83
2023/07/22 01:02:04;;;;;;;5.40;3.10;;;;;;;-145.41;100.00;58600.66;5006135;28;20040;-83
2023/07/22 01:04:34;;;;;;;5.25;2.63;;;;;;;-145.41;100.00;58600.66;5010529;28;20074;-83
2023/07/22 01:07:00;;;;;;;5.82;2.90;;;;;;;-145.41;100.00;58600.66;5010173;28;20038;-83
2023/07/22 01:09:26;;;;;;;4.50;2.70;;;;;;;-145.41;100.00;58600.66;5002494;28;20390;-83
2023/07/22 01:11:52;;;;;;;6.60;3.47;;;;;;;-145.41;100.00;58600.66;5010909;28;20407;-83
2023/07/22 01:14:17;;;;;;;6.05;3.00;;;;;;;-145.41;100.00;58600.66;5012565;28;20081;-83
2023/07/22 01:16:42;;;;;;;6.72;3.10;;;;;;;-145.41;100.00;58600.66;5007998;28;20046;-84
2023/07/22 01:19:10;;;;;;;5.07;3.15;;;;;;;-145.41;100.00;58600.66;5010045;28;20034;-83
2023/07/22 01:21:36;;;;;;;5.00;2.95;;;;;;;-145.41;100.00;58600.66;5004990;28;20030;-83
2023/07/22 01:24:01;;;;;;;7.95;3.20;;;;;;;-145.41;100.00;58600.66;5004247;28;20040;-83
2023/07/22 01:26:27;;;;;;;5.47;3.08;;;;;;;-145.41;100.00;58600.66;5004145;28;20038;-83
2023/07/22 01:29:02;;;;;;;6.47;3.22;;;;;;;-145.41;100.00;58600.66;5002239;28;20098;-83
2023/07/22 01:31:27;;;;;;;8.10;3.20;;;;;;;-145.41;100.00;58600.66;5005657;28;20030;-83
2023/07/22 01:33:52;;;;;;;7.40;3.42;;;;;;;-145.41;100.00;58600.66;5007256;28;20034;-83
2023/07/22 01:36:18;;;;;;;7.15;2.92;;;;;;;-145.41;100.00;58600.66;4998631;28;20094;-83
2023/07/22 01:38:43;;;;;;;7.40;3.88;;;;;;;-145.41;100.00;58600.66;5000630;28;20054;-84
2023/07/22 01:41:08;;;;;;;4.63;2.70;;;;;;;-145.41;100.00;58600.66;5006930;28;20031;-83
2023/07/22 01:43:34;;;;;;;5.82;3.30;;;;;;;-145.41;100.00;58600.66;5004036;28;20046;-82
2023/07/22 01:45:59;;;;;;;7.47;3.50;;;;;;;-145.41;100.00;58600.66;5011236;28;20038;-83
2023/07/22 01:48:24;;;;;;;7.65;3.97;;;;;;;-145.41;100.00;58600.66;5005560;28;20046;-82
2023/07/22 01:50:50;;;;;;;8.88;3.60;;;;;;;-145.41;100.00;58600.66;5001565;28;20042;-82
2023/07/22 01:53:15;;;;;;;11.25;3.40;;;;;;;-145.41;100.00;58600.66;5005141;28;20038;-84
2023/07/22 01:55:40;;;;;;;6.38;3.30;;;;;;;-145.41;100.00;58600.66;5002360;28;20045;-82
2023/07/22 01:58:06;;;;;;;7.63;3.63;;;;;;;-145.41;100.00;58600.66;5005750;28;20046;-82
2023/07/22 02:00:31;;;;;;;6.85;4.05;;;;;;;-145.41;100.00;58600.66;5002446;28;20073;-82
2023/07/22 02:02:56;;;;;;;6.80;3.60;;;;;;;-145.41;100.00;58600.66;5007371;28;20053;-82
2023/07/22 02:05:22;;;;;;;8.05;4.18;;;;;;;-145.41;100.00;58600.66;5007495;28;20035;-82
2023/07/22 02:07:47;;;;;;;7.43;3.97;;;;;;;-145.41;100.00;58600.66;5010183;28;20034;-83
2023/07/22 02:10:13;;;;;;;7.65;3.95;;;;;;;-145.41;100.00;58600.66;5005459;28;20030;-83
2023/07/22 02:12:38;;;;;;;8.57;3.75;;;;;;;-145.41;100.00;58600.66;5003588;28;20034;-83
2023/07/22 02:15:04;;;;;;;6.82;3.83;;;;;;;-145.41;100.00;58600.66;5003189;28;20053;-83
2023/07/22 02:17:30;;;;;;;7.75;3.55;;;;;;;-145.41;100.00;58600.66;5007516;28;20116;-83
2023/07/22 02:19:56;;;;;;;7.70;4.30;;;;;;;-145.41;100.00;58600.66;4988178;28;20050;-83
2023/07/22 02:22:21;;;;;;;6.75;4.20;;;;;;;-145.41;100.00;58600.66;5004527;28;20034;-83
2023/07/22 02:24:47;;;;;;;10.15;4.85;;;;;;;-145.41;100.00;58600.66;5002933;28;20042;-83
2023/07/22 02:27:12;;;;;;;7.93;4.75;;;;;;;-145.41;100.00;58600.66;5002072;28;20042;-83
2023/07/22 02:29:37;;;;;;;6.25;4.32;;;;;;;-145.41;100.00;58600.66;5011515;28;20065;-83
2023/07/22 02:32:03;;;;;;;9.10;4.88;;;;;;;-145.41;100.00;58600.66;5002392;28;20042;-82
2023/07/22 02:34:28;;;;;;;10.07;4.28;;;;;;;-145.41;100.00;58600.66;5009546;28;20045;-81
2023/07/22 02:36:54;;;;;;;7.18;4.18;;;;;;;-145.41;100.00;58600.66;4997540;28;20054;-82
2023/07/22 02:39:19;;;;;;;5.75;4.65;;;;;;;-145.41;100.00;58600.66;5009957;28;20034;-82
2023/07/22 02:41:45;;;;;;;5.85;3.97;;;;;;;-145.41;100.00;58600.66;5003307;28;20034;-82
2023/07/22 02:44:10;;;;;;;7.88;4.70;;;;;;;-145.41;100.00;58600.66;5002537;28;20043;-82
2023/07/22 02:46:35;;;;;;;13.05;5.22;;;;;;;-145.41;100.00;58600.66;5009480;28;20110;-82
2023/07/22 02:49:00;;;;;;;7.68;4.20;;;;;;;-145.41;100.00;58600.66;5007810;28;20378;-82
2023/07/22 02:51:26;;;;;;;9.80;4.80;;;;;;;-145.41;100.00;58600.66;5010011;28;20038;-81
2023/07/22 02:53:51;;;;;;;7.07;4.50;;;;;;;-145.41;100.00;58600.66;5008336;28;20053;-81
2023/07/22 02:56:17;;;;;;;8.98;4.93;;;;;;;-145.41;100.00;58600.66;5011246;28;20030;-82
2023/07/22 02:58:43;;;;;;;7.00;4.75;;;;;;;-145.41;100.00;58600.66;5012033;28;20092;-83
2023/07/22 03:01:10;;;;;;;7.13;5.40;;;;;;;-145.41;100.00;58600.66;4992969;28;20100;-82
2023/07/22 03:03:36;;;;;;;10.50;5.03;;;;;;;-145.41;100.00;58600.66;5013012;28;20138;-82
2023/07/22 03:06:03;;;;;;;10.32;4.78;;;;;;;-145.41;100.00;58600.66;5014579;28;20038;-83
2023/07/22 03:08:28;;;;;;;8.50;5.43;;;;;;;-145.41;100.00;58600.66;5012125;28;20073;-81
2023/07/22 03:10:53;;;;;;;9.13;4.63;;;;;;;-145.41;100.00;58600.66;5012297;28;20034;-81
2023/07/22 03:13:19;;;;;;;7.75;4.70;;;;;;;-145.41;100.00;58600.66;4994185;28;20026;-82
2023/07/22 03:15:44;;;;;;;12.00;6.28;;;;;;;-145.41;100.00;58600.66;5014903;28;20030;-83
2023/07/22 03:18:11;;;;;;;9.43;5.50;;;;;;;-145.41;100.00;58600.66;4997912;28;20034;-83
2023/07/22 03:20:37;;;;;;;8.63;4.90;;;;;;;-145.41;100.00;58600.66;5012636;28;20034;-83
2023/07/22 03:23:06;;;;;;;9.25;5.00;;;;;;;-145.41;100.00;58600.66;4995663;28;20548;-82
2023/07/22 03:25:33;;;;;;;12.45;6.00;;;;;;;-145.41;100.00;58600.66;5006782;28;20041;-82
2023/07/22 03:28:06;;;;;;;8.10;5.30;;;;;;;-145.41;100.00;58600.66;5007641;28;20065;-81
2023/07/22 03:30:31;;;;;;;11.23;5.45;;;;;;;-145.41;100.00;58600.66;5006257;28;20035;-82
2023/07/22 03:32:57;;;;;;;9.32;5.60;;;;;;;-145.41;100.00;58600.66;5008789;28;20046;-81
2023/07/22 03:35:23;;;;;;;10.88;5.68;;;;;;;-145.41;100.00;58600.66;5011892;28;20022;-80
2023/07/22 03:37:48;;;;;;;9.90;5.65;;;;;;;-145.41;100.00;58600.66;5011839;28;20085;-80
2023/07/22 03:40:19;;;;;;;11.00;6.07;;;;;;;-145.41;100.00;58600.66;5007916;28;20034;-82
2023/07/22 03:42:45;;;;;;;10.57;5.75;;;;;;;-145.41;100.00;58600.66;5007722;28;20030;-82
2023/07/22 03:45:11;;;;;;;7.40;5.22;;;;;;;-145.41;100.00;58600.66;5004180;28;20066;-82
2023/07/22 03:47:36;;;;;;;8.60;4.47;;;;;;;-145.41;100.00;58600.66;5011053;28;20038;-82
2023/07/22 03:50:02;;;;;;;7.05;5.15;;;;;;;-145.41;100.00;58600.66;5003237;28;20035;-82
2023/07/22 03:52:27;;;;;;;9.52;5.75;;;;;;;-145.41;100.00;58600.66;4993801;28;20033;-82
2023/07/22 03:54:52;;;;;;;6.88;6.10;;;;;;;-145.41;100.00;58600.66;5006804;28;20027;-83
2023/07/22 03:57:18;;;;;;;9.07;6.07;;;;;;;-145.41;100.00;58600.66;5013044;28;20037;-82
2023/07/22 03:59:43;;;;;;;8.23;5.30;;;;;;;-145.41;100.00;58600.66;5013308;28;20104;-82
2023/07/22 04:02:08;;;;;;;8.77;6.50;;;;;;;-145.41;100.00;58600.66;5010402;28;20418;-82
2023/07/22 04:04:34;;;;;;;7.95;5.50;;;;;;;-145.41;100.00;58600.66;4994189;28;20049;-82
2023/07/22 04:06:59;;;;;;;8.32;5.68;;;;;;;-145.41;100.00;58600.66;5011811;28;20041;-82
2023/07/22 04:09:27;;;;;;;12.32;6.10;;;;;;;-145.41;100.00;58600.66;5009267;28;20082;-82
2023/07/22 04:11:52;;;;;;;10.18;6.30;;;;;;;-145.41;100.00;58600.66;4994344;28;20041;-82
2023/07/22 04:14:18;;;;;;;10.88;5.43;;;;;;;-145.41;100.00;58600.66;5015035;28;20046;-82
2023/07/22 04:16:43;;;;;;;7.57;5.45;;;;;;;-145.41;100.00;58600.66;5010038;28;20034;-82
2023/07/22 04:19:08;;;;;;;7.68;5.50;;;;;;;-145.41;100.00;58600.66;5010665;28;20034;-82
2023/07/22 04:21:34;;;;;;;8.85;5.13;;;;;;;-145.41;100.00;58600.66;5014338;28;20077;-81
2023/07/22 04:23:59;;;;;;;11.88;5.72;;;;;;;-145.41;100.00;58600.66;5010322;28;20034;-82
2023/07/22 04:26:24;;;;;;;6.95;4.90;;;;;;;-145.41;100.00;58600.66;5008577;28;20086;-81
2023/07/22 04:28:50;;;;;;;8.13;5.00;;;;;;;-145.41;100.00;58600.66;5008105;28;20038;-82
2023/07/22 04:31:15;;;;;;;9.57;6.50;;;;;;;-145.41;100.00;58600.66;5009742;28;20034;-82
2023/07/22 04:33:41;;;;;;;9.85;5.85;;;;;;;-145.41;100.00;58600.66;5010011;28;20045;-81
2023/07/22 04:36:07;;;;;;;9.77;6.28;;;;;;;-145.41;100.00;58600.66;5010252;28;20062;-82
2023/07/22 04:38:33;;;;;;;7.70;5.43;;;;;;;-145.41;100.00;58600.66;5010941;28;20033;-81
2023/07/22 04:41:00;;;;;;;8.73;5.20;;;;;;;-145.41;100.00;58600.66;5007177;28;20026;-81
2023/07/22 04:43:25;;;;;;;10.57;5.63;;;;;;;-145.41;100.00;58600.66;5010519;28;20038;-81
2023/07/22 04:45:50;;;;;;;8.05;5.30;;;;;;;-145.41;100.00;58600.66;5009387;28;20038;-81
2023/07/22 04:48:19;;;;;;;7.45;4.97;;;;;;;-145.41;100.00;58600.66;5008875;28;20042;-82
2023/07/22 04:50:45;;;;;;;8.35;5.78;;;;;;;-145.41;100.00;58600.66;5008920;28;20496;-81
2023/07/22 04:53:13;;;;;;;6.22;4.97;;;;;;;-145.41;100.00;58600.66;5010005;28;20039;-81
2023/07/22 04:55:38;;;;;;;7.22;5.05;;;;;;;-145.41;100.00;58600.66;5011445;28;20101;-81
2023/07/22 04:58:04;;;;;;;7.72;6.00;;;;;;;-145.41;100.00;58600.66;5010028;28;20493;-80
2023/07/22 05:00:29;;;;;;;7.78;5.68;;;;;;;-145.41;100.00;58600.66;5010774;28;20077;-81
2023/07/22 05:02:56;;;;;;;9.85;5.95;;;;;;;-145.41;100.00;58600.66;5008686;28;20034;-78
2023/07/22 05:05:21;;;;;;;7.95;5.00;;;;;;;-145.41;100.00;58600.66;5007724;28;20046;-78
2023/07/22 05:07:49;;;;;;;8.45;5.00;;;;;;;-145.41;100.00;58600.66;5005627;28;20038;-79
2023/07/22 05:10:14;;;;;;;8.45;5.75;;;;;;;-145.41;100.00;58600.66;5005151;28;20124;-80
2023/07/22 05:12:40;;;;;;;8.05;5.20;;;;;;;-145.41;100.00;58600.66;5009143;28;20130;-80
2023/07/22 05:15:07;;;;;;;7.57;4.80;;;;;;;-145.41;100.00;58600.66;5005098;28;20053;-79
2023/07/22 05:17:32;;;;;;;8.15;5.68;;;;;;;-145.41;100.00;58600.66;5008261;28;20034;-81
2023/07/22 05:19:58;;;;;;;9.65;5.88;;;;;;;-145.41;100.00;58600.66;5005024;28;20030;-81
2023/07/22 05:22:24;;;;;;;10.73;5.55;;;;;;;-145.41;100.00;58600.66;5011335;28;20038;-81
2023/07/22 05:24:49;;;;;;;8.13;4.90;;;;;;;-145.41;100.00;58600.66;5011426;28;20057;-82
2023/07/22 05:27:15;;;;;;;8.00;6.00;;;;;;;-145.41;100.00;58600.66;5007683;28;20060;-81
2023/07/22 05:29:41;;;;;;;8.30;5.78;;;;;;;-145.41;100.00;58600.66;5007515;28;20042;-79
2023/07/22 05:32:07;;;;;;;8.23;5.75;;;;;;;-145.41;100.00;58600.66;5006684;28;20045;-81
2023/07/22 05:34:32;;;;;;;7.38;5.30;;;;;;;-145.41;100.00;58600.66;5004977;28;20117;-80
2023/07/22 05:36:57;;;;;;;9.73;6.07;;;;;;;-145.41;100.00;58600.66;4995707;28;20038;-80
2023/07/22 05:39:23;;;;;;;8.88;5.55;;;;;;;-145.41;100.00;58600.66;4975563;28;20030;-79
2023/07/22 05:41:48;;;;;;;10.43;5.70;;;;;;;-145.41;100.00;58600.66;4999512;28;20088;-80
2023/07/22 05:44:14;;;;;;;7.85;5.38;;;;;;;-145.41;100.00;58600.66;4997952;28;20038;-80
2023/07/22 05:46:39;;;;;;;8.50;5.03;;;;;;;-145.41;100.00;58600.66;4997725;28;20096;-81
2023/07/22 05:49:05;;;;;;;8.75;5.43;;;;;;;-145.41;100.00;58600.66;4991706;28;20065;-81
2023/07/22 05:51:30;;;;;;;7.90;5.93;;;;;;;-145.41;100.00;58600.66;4991645;28;20042;-81
2023/07/22 05:53:56;;;;;;;8.05;5.45;;;;;;;-145.41;100.00;58600.66;4993728;28;20064;-81
2023/07/22 05:56:21;;;;;;;9.18;5.78;;;;;;;-145.41;100.00;58600.66;4991318;28;20033;-81
2023/07/22 05:58:46;;;;;;;6.38;5.05;;;;;;;-145.41;100.00;58600.66;4993002;28;20061;-81
2023/07/22 06:01:12;;;;;;;7.45;5.30;;;;;;;-145.41;100.00;58600.66;4992475;28;20036;-81
2023/07/22 06:03:38;;;;;;;9.30;5.07;;;;;;;-145.41;100.00;58600.66;4995847;28;20035;-81
2023/07/22 06:06:04;;;;;;;7.57;5.57;;;;;;;-145.41;100.00;58600.66;4995594;28;20034;-81
2023/07/22 06:08:29;;;;;;;8.45;5.70;;;;;;;-145.41;100.00;58600.66;4998175;28;20523;-81
2023/07/22 06:10:56;;;;;;;9.45;5.38;;;;;;;-145.41;100.00;58600.66;4995133;28;20121;-81
2023/07/22 06:13:21;;;;;;;9.73;5.40;;;;;;;-145.41;100.00;58600.66;4995817;28;20054;-81
2023/07/22 06:15:46;;;;;;;7.63;5.30;;;;;;;-145.41;100.00;58600.66;4989081;28;20030;-81
2023/07/22 06:18:12;;;;;;;7.65;5.90;;;;;;;-145.41;100.00;58600.66;4989012;28;20035;-81
2023/07/22 06:20:38;;;;;;;7.22;5.40;;;;;;;-145.41;100.00;58600.66;4999965;28;20050;-81
2023/07/22 06:23:04;;;;;;;10.45;6.43;;;;;;;-145.41;100.00;58600.66;5008856;28;20038;-81
2023/07/22 06:25:29;;;;;;;7.32;5.55;;;;;;;-145.41;100.00;58600.66;5003817;28;20058;-81
2023/07/22 06:27:54;;;;;;;11.38;5.85;;;;;;;-145.41;100.00;58600.66;5004283;28;20035;-81
2023/07/22 06:30:20;;;;;;;9.32;5.40;;;;;;;-145.41;100.00;58600.66;5006149;28;20045;-80
2023/07/22 06:32:45;;;;;;;8.68;5.97;;;;;;;-145.41;100.00;58600.66;5017384;28;20233;-81
2023/07/22 06:35:11;;;;;;;8.77;5.85;;;;;;;-145.41;100.00;58600.66;5007905;28;20035;-81
2023/07/22 06:37:36;;;;;;;8.95;5.43;;;;;;;-145.41;100.00;58600.66;5018850;28;20042;-81
2023/07/22 06:40:03;;;;;;;12.88;7.15;;;;;;;-145.41;100.00;58600.66;5014324;28;20045;-81
2023/07/22 06:42:29;;;;;;;14.80;6.78;;;;;;;-145.41;100.00;58600.66;5010452;28;20046;-81
2023/07/22 06:44:54;;;;;;;11.23;6.43;;;;;;;-145.41;100.00;58600.66;5011311;28;20090;-81
2023/07/22 06:47:20;;;;;;;10.45;6.43;;;;;;;-145.41;100.00;58600.66;5010180;28;20034;-81
2023/07/22 06:49:45;;;;;;;9.32;5.68;;;;;;;-145.41;100.00;58600.66;5008317;28;21005;-81
2023/07/22 06:52:11;;;;;;;10.02;6.47;;;;;;;-145.41;100.00;58600.66;5012972;28;20034;-81
2023/07/22 06:54:36;;;;;;;8.45;5.53;;;;;;;-145.41;100.00;58600.66;5010456;28;20026;-82
2023/07/22 06:57:02;;;;;;;9.40;6.22;;;;;;;-145.41;100.00;58600.66;5013517;28;20053;-81
2023/07/22 06:59:28;;;;;;;9.30;6.07;;;;;;;-145.41;100.00;58600.66;5011713;28;20045;-80
2023/07/22 07:01:53;;;;;;;9.32;6.78;;;;;;;-145.41;100.00;58600.66;5007700;28;20018;-81
2023/07/22 07:04:18;;;;;;;10.23;6.50;;;;;;;-145.41;100.00;58600.66;5013846;28;20049;-81
2023/07/22 07:06:45;;;;;;;8.98;5.15;;;;;;;-145.41;100.00;58600.66;5014020;28;20034;-82
2023/07/22 07:09:11;;;;;;;9.13;5.65;;;;;;;-145.41;100.00;58600.66;5013242;28;20034;-81
2023/07/22 07:11:36;;;;;;;9.73;5.53;;;;;;;-145.41;100.00;58600.66;5014293;28;20014;-81
2023/07/22 07:14:03;;;;;;;7.28;4.82;;;;;;;-145.41;100.00;58600.66;5013710;28;20042;-82
2023/07/22 07:16:31;;;;;;;8.30;4.97;;;;;;;-145.41;100.00;58600.66;5012537;28;20030;-82
2023/07/22 07:18:57;;;;;;;9.85;6.00;;;;;;;-145.41;100.00;58600.66;5012752;28;20038;-82
2023/07/22 07:21:23;;;;;;;6.07;4.68;;;;;;;-145.41;100.00;58600.66;5010119;28;20123;-82
2023/07/22 07:23:48;;;;;;;11.38;5.40;;;;;;;-145.41;100.00;58600.66;5012442;28;20121;-81
2023/07/22 07:26:14;;;;;;;7.38;4.53;;;;;;;-145.41;100.00;58600.66;5005410;28;20105;-81
2023/07/22 07:28:41;;;;;;;7.18;4.53;;;;;;;-145.41;100.00;58600.66;5014385;28;20022;-82
2023/07/22 07:31:07;;;;;;;7.65;5.10;;;;;;;-145.41;100.00;58600.66;5016406;28;20046;-82
2023/07/22 07:33:33;;;;;;;5.93;4.30;;;;;;;-145.41;100.00;58600.66;5011263;28;20053;-82
2023/07/22 07:35:58;;;;;;;6.50;4.43;;;;;;;-145.41;100.00;58600.66;4997205;28;20030;-79
2023/07/22 07:38:24;;;;;;;8.10;4.80;;;;;;;-145.41;100.00;58600.66;4994515;28;20041;-79
2023/07/22 07:40:55;;;;;;;7.32;4.38;;;;;;;-145.41;100.00;58600.66;4995368;28;20037;-79
2023/07/22 07:43:20;;;;;;;8.35;5.55;;;;;;;-145.41;100.00;58600.66;4991456;28;20062;-79
2023/07/22 07:45:45;;;;;;;5.28;3.40;;;;;;;-145.41;100.00;58600.66;5000960;28;20066;-79
2023/07/22 07:48:11;;;;;;;6.35;3.92;;;;;;;-145.41;100.00;58600.66;4995770;28;20413;-79
2023/07/22 07:50:36;;;;;;;5.82;4.00;;;;;;;-145.41;100.00;58600.66;4995305;28;20401;-81
2023/07/22 07:53:01;;;;;;;5.38;4.22;;;;;;;-145.41;100.00;58600.66;4996465;28;20023;-80
2023/07/22 07:55:27;;;;;;;7.00;3.88;;;;;;;-145.41;100.00;58600.66;4996270;28;20414;-80
2023/07/22 07:57:52;;;;;;;9.27;3.85;;;;;;;-145.41;100.00;58600.66;4996039;28;20058;-80
2023/07/22 08:00:18;;;;;;;5.47;3.40;;;;;;;-145.41;100.00;58600.66;4992053;28;20489;-80
2023/07/22 08:02:43;;;;;;;5.63;3.00;;;;;;;-145.41;100.00;58600.66;4991621;28;20088;-80
2023/07/22 08:05:08;;;;;;;5.63;3.55;;;;;;;-145.41;100.00;58600.66;4992836;28;20102;-80
2023/07/22 08:07:34;;;;;;;5.60;2.80;;;;;;;-145.41;100.00;58600.66;4994945;28;20042;-80
2023/07/22 08:10:00;;;;;;;4.95;3.30;;;;;;;-145.41;100.00;58600.66;4992533;28;20444;-80
2023/07/22 08:12:26;;;;;;;5.15;3.40;;;;;;;-145.41;100.00;58600.66;4995297;28;20050;-80
2023/07/22 08:14:53;;;;;;;6.00;3.50;;;;;;;-145.41;100.00;58600.66;4990287;28;20035;-80
2023/07/22 08:17:18;;;;;;;6.93;4.10;;;;;;;-145.41;100.00;58600.66;4989124;28;20031;-80
2023/07/22 08:19:44;;;;;;;5.53;3.10;;;;;;;-145.41;100.00;58600.66;4995179;28;20048;-80
2023/07/22 08:22:09;;;;;;;5.05;3.45;;;;;;;-145.41;100.00;58600.66;4994376;28;20138;-79
2023/07/22 08:24:34;;;;;;;5.05;2.95;;;;;;;-145.41;100.00;58600.66;4998963;28;20062;-79
2023/07/22 08:27:00;;;;;;;7.03;2.80;;;;;;;-145.41;100.00;58600.66;5001768;28;20038;-80
2023/07/22 08:29:25;;;;;;;4.60;2.90;;;;;;;-145.41;100.00;58600.66;4996211;28;20046;-80
2023/07/22 08:31:50;;;;;;;4.43;2.85;;;;;;;-145.41;100.00;58600.66;4994327;28;20034;-81
2023/07/22 08:34:16;;;;;;;6.15;3.35;;;;;;;-145.41;100.00;58600.66;4993960;28;20101;-81
2023/07/22 08:36:42;;;;;;;5.72;2.80;;;;;;;-145.41;100.00;58600.66;4991088;28;20038;-80
2023/07/22 08:39:07;;;;;;;5.03;3.03;;;;;;;-145.41;100.00;58600.66;4974996;28;20823;-79
2023/07/22 08:41:33;;;;;;;4.85;3.00;;;;;;;-145.41;100.00;58600.66;4992600;28;20109;-80
2023/07/22 08:44:00;;;;;;;4.70;2.45;;;;;;;-145.41;100.00;58600.66;4994400;28;20062;-80
2023/07/22 08:46:29;;;;;;;8.05;3.33;;;;;;;-145.41;100.00;58600.66;4994671;28;20409;-80
2023/07/22 08:48:58;;;;;;;8.32;2.78;;;;;;;-145.41;100.00;58600.66;4993555;28;20124;-80
2023/07/22 08:51:28;;;;;;;6.28;3.08;;;;;;;-145.41;100.00;58600.66;4993303;28;20030;-80
2023/07/22 08:53:56;;;;;;;3.90;2.47;;;;;;;-145.41;100.00;58600.66;4993339;28;20145;-80
2023/07/22 08:56:23;;;;;;;4.88;2.65;;;;;;;-145.41;100.00;58600.66;4994381;28;20101;-80
2023/07/22 08:58:50;;;;;;;4.28;2.85;;;;;;;-145.41;100.00;58600.66;4993634;28;20037;-80
2023/07/22 09:01:16;;;;;;;3.67;2.42;;;;;;;-145.41;100.00;58600.66;4994406;28;20038;-80
2023/07/22 09:03:41;;;;;;;5.20;2.90;;;;;;;-145.41;100.00;58600.66;4994526;28;20512;-80
2023/07/22 09:06:07;;;;;;;4.50;2.47;;;;;;;-145.41;100.00;58600.66;4994704;28;20038;-80
2023/07/22 09:08:33;;;;;;;4.15;2.60;;;;;;;-145.41;100.00;58600.66;4995575;28;20030;-80
2023/07/22 09:10:59;;;;;;;4.10;2.83;;;;;;;-145.41;100.00;58600.66;4993652;28;20030;-80
2023/07/22 09:13:26;;;;;;;5.28;2.58;;;;;;;-145.41;100.00;58600.66;4992326;28;20398;-80
2023/07/22 09:15:53;;;;;;;4.20;2.60;;;;;;;-145.41;100.00;58600.66;4993589;28;20048;-80
2023/07/22 09:18:18;;;;;;;4.05;2.10;;;;;;;-145.41;100.00;58600.66;4993143;28;20030;-80
2023/07/22 09:20:43;;;;;;;4.55;2.42;;;;;;;-145.41;100.00;58600.66;4993009;28;20547;-80
2023/07/22 09:23:09;;;;;;;5.03;2.72;;;;;;;-145.41;100.00;58600.66;4993961;28;20408;-80
2023/07/22 09:25:34;;;;;;;5.32;2.67;;;;;;;-145.41;100.00;58600.66;4996944;28;20043;-80
2023/07/22 09:28:00;;;;;;;3.67;2.28;;;;;;;-145.41;100.00;58600.66;4993312;28;20070;-80
2023/07/22 09:30:31;;;;;;;3.58;2.20;;;;;;;-145.41;100.00;58600.66;4992636;28;20030;-80
2023/07/22 09:32:58;;;;;;;4.45;2.20;;;;;;;-145.41;100.00;58600.66;4993389;28;20524;-80
2023/07/22 09:35:28;;;;;;;4.93;2.65;;;;;;;-145.41;100.00;58600.66;4993437;28;20497;-79
2023/07/22 09:37:54;;;;;;;3.95;2.20;;;;;;;-145.41;100.00;58600.66;4995066;28;20034;-80
2023/07/22 09:40:26;;;;;;;4.22;2.08;;;;;;;-145.41;100.00;58600.66;4993125;28;20041;-80
2023/07/22 09:42:54;;;;;;;5.25;2.50;;;;;;;-145.41;100.00;58600.66;4990783;28;20042;-80
2023/07/22 09:45:22;;;;;;;4.18;2.70;;;;;;;-145.41;100.00;58600.66;4992130;28;20398;-80
2023/07/22 09:47:52;;;;;;;6.65;2.85;;;;;;;-145.41;100.00;58600.66;4992068;28;20045;-79
2023/07/22 09:50:19;;;;;;;4.60;2.40;;;;;;;-145.41;100.00;58600.66;4990166;28;20493;-80
2023/07/22 09:52:55;;;;;;;4.47;2.40;;;;;;;-145.41;100.00;58600.66;4992063;28;20108;-80
2023/07/22 09:55:23;;;;;;;4.20;2.15;;;;;;;-145.41;100.00;58600.66;4991561;28;20031;-80
2023/07/22 09:58:00;;;;;;;5.10;2.58;;;;;;;-145.41;100.00;58600.66;4993234;28;20041;-81
2023/07/22 10:00:38;;;;;;;5.82;2.20;;;;;;;-145.41;100.00;58600.66;4996997;28;20038;-80
2023/07/22 10:03:09;;;;;;;4.10;2.35;;;;;;;-145.41;100.00;58600.66;4993293;28;20034;-80
2023/07/22 10:05:36;;;;;;;5.97;2.40;;;;;;;-145.41;100.00;58600.66;4991294;28;20046;-80
2023/07/22 10:08:02;;;;;;;7.57;2.85;;;;;;;-145.41;100.00;58600.66;4995648;28;20026;-80
2023/07/22 10:10:37;;;;;;;3.78;2.20;;;;;;;-145.41;100.00;58600.66;4992684;28;20113;-80
2023/07/22 10:13:02;;;;;;;4.68;2.75;;;;;;;-145.41;100.00;58600.66;4990262;28;20489;-80
2023/07/22 10:15:30;;;;;;;4.00;2.05;;;;;;;-145.41;100.00;58600.66;4992624;28;20034;-80
2023/07/22 10:17:56;;;;;;;6.47;2.65;;;;;;;-145.41;100.00;58600.66;4993179;28;20668;-80
2023/07/22 10:20:23;;;;;;;4.68;2.45;;;;;;;-145.41;100.00;58600.66;4991849;28;20441;-80
2023/07/22 10:22:49;;;;;;;3.95;2.20;;;;;;;-145.41;100.00;58600.66;4992794;28;20442;-80
2023/07/22 10:25:19;;;;;;;4.45;2.45;;;;;;;-145.41;100.00;58600.66;4991333;28;20096;-80
2023/07/22 10:27:45;;;;;;;4.07;2.55;;;;;;;-145.41;100.00;58600.66;4991549;28;20034;-80
2023/07/22 10:30:16;;;;;;;3.53;2.22;;;;;;;-145.41;100.00;58600.66;4992298;28;20042;-80
2023/07/22 10:32:52;;;;;;;4.45;2.40;;;;;;;-145.41;100.00;58600.66;4992387;28;20034;-80
2023/07/22 10:35:29;;;;;;;4.03;2.58;;;;;;;-145.41;100.00;58600.66;4990292;28;20030;-80
2023/07/22 10:37:55;;;;;;;5.05;2.90;;;;;;;-145.41;100.00;58600.66;4994324;28;20038;-80
2023/07/22 10:40:29;;;;;;;3.83;2.25;;;;;;;-145.41;100.00;58600.66;4991761;28;20117;-80
2023/07/22 10:43:03;;;;;;;5.55;2.85;;;;;;;-145.41;100.00;58600.66;4991054;28;20041;-80
2023/07/22 10:45:31;;;;;;;3.95;2.42;;;;;;;-145.41;100.00;58600.66;4992726;28;20085;-80
2023/07/22 10:48:14;;;;;;;5.32;2.30;;;;;;;-145.41;100.00;58600.66;4990784;28;20049;-80
2023/07/22 10:50:48;;;;;;;3.45;2.25;;;;;;;-145.41;100.00;58600.66;4991803;28;20358;-80
2023/07/22 10:53:20;;;;;;;4.75;2.50;;;;;;;-145.41;100.00;58600.66;4992259;28;20038;-80
2023/07/22 10:56:05;;;;;;;5.82;2.38;;;;;;;-145.41;100.00;58600.66;4989186;28;20042;-80
2023/07/22 10:58:53;;;;;;;4.28;2.30;;;;;;;-145.41;100.00;58600.66;4991533;28;20052;-80
2023/07/22 11:01:32;;;;;;;3.72;2.42;;;;;;;-145.41;100.00;58600.66;4991645;28;20061;-80
2023/07/22 11:04:16;;;;;;;4.20;2.10;;;;;;;-145.41;100.00;58600.66;4992570;28;20034;-80
2023/07/22 11:06:48;;;;;;;5.20;2.50;;;;;;;-145.41;100.00;58600.66;4990838;28;20417;-80